Time,TemperatureF,DewpointF,PressureIn,WindDirection,WindDirectionDegrees,WindSpeedMPH,WindSpeedGustMPH,Humidity,HourlyPrecipIn,Conditions,Clouds,dailyrainin,SoftwareType,DateUTC
2013-06-06 00:03:00,57.0,49.9,29.97,NNW,342,0.0,0.0,77,0.00,OVC,OVC,0.00,WeatherDisplay:10.37,2013-06-06 05:03:00,
2013-06-06 00:08:00,56.7,49.9,29.97,NNW,342,0.0,0.0,78,0.00,OVC,OVC,0.00,WeatherDisplay:10.37,2013-06-06 05:08:00,
2013-06-06 00:13:00,56.5,49.7,29.97,NNW,342,0.0,0.0,78,0.00,OVC,OVC,0.00,WeatherDisplay:10.37,2013-06-06 05:13:00,
2013-06-06 00:19:00,56.3,49.5,29.97,NNW,342,0.0,0.0,78,0.00,OVC,OVC,0.00,WeatherDisplay:10.37,2013-06-06 05:19:00,
2013-06-06 00:24:00,56.1,49.7,29.97,NNW,342,0.0,0.0,79,0.00,OVC,OVC,0.00,WeatherDisplay:10.37,2013-06-06 05:24:00,
2013-06-06 00:29:00,56.0,49.6,29.97,NNW,342,0.0,0.0,79,0.00,OVC,OVC,0.00,WeatherDisplay:10.37,2013-06-06 05:29:00,
2013-06-06 00:34:00,56.0,49.9,29.97,NNW,342,0.0,0.0,80,0.00,OVC,OVC,0.00,WeatherDisplay:10.37,2013-06-06 05:34:00,
2013-06-06 00:39:00,55.8,49.7,29.97,NNW,342,0.0,0.0,80,0.00,OVC,OVC,0.00,WeatherDisplay:10.37,2013-06-06 05:39:00,
2013-06-06 00:45:00,55.6,49.5,29.96,NNW,342,0.0,0.0,80,0.00,OVC,OVC,0.00,WeatherDisplay:10.37,2013-06-06 05:45:00,
2013-06-06 00:50:00,55.4,49.3,29.96,NNW,342,0.0,0.0,80,0.00,OVC,OVC,0.00,WeatherDisplay:10.37,2013-06-06 05:50:00,
2013-06-06 00:55:00,55.2,49.1,29.96,NNW,342,0.0,0.0,80,0.00,OVC,OVC,0.00,WeatherDisplay:10.37,2013-06-06 05:55:00,
2013-06-06 01:00:00,55.0,48.9,29.96,NNW,342,0.0,0.0,80,0.00,OVC,OVC,0.00,WeatherDisplay:10.37,2013-06-06 06:00:00,
2013-06-06 01:05:00,54.8,48.7,29.96,NNW,342,0.0,0.0,80,0.00,OVC,OVC,0.00,WeatherDisplay:10.37,2013-06-06 06:05:00,
2013-06-06 01:10:00,54.6,48.9,29.96,NNW,342,0.0,0.0,81,0.00,OVC,OVC,0.00,WeatherDisplay:10.37,2013-06-06 06:10:00,
2013-06-06 01:15:00,54.6,48.9,29.96,NNW,342,0.0,0.0,81,0.00,OVC,OVC,0.00,WeatherDisplay:10.37,2013-06-06 06:15:00,
2013-06-06 01:20:00,54.5,48.8,29.96,NNW,342,0.0,0.0,81,0.00,OVC,OVC,0.00,WeatherDisplay:10.37,2013-06-06 06:20:00,
2013-06-06 01:26:00,54.5,48.8,29.95,NNW,342,0.0,0.0,81,0.00,OVC,OVC,0.00,WeatherDisplay:10.37,2013-06-06 06:26:00,
2013-06-06 01:31:00,54.5,48.8,29.95,NNW,342,0.0,0.0,81,0.00,OVC,OVC,0.00,WeatherDisplay:10.37,2013-06-06 06:31:00,
2013-06-06 01:36:00,54.4,48.7,29.95,NNW,342,0.0,0.0,81,0.00,OVC,OVC,0.00,WeatherDisplay:10.37,2013-06-06 06:36:00,
2013-06-06 01:41:00,54.4,48.7,29.95,NNW,342,0.0,0.0,81,0.00,OVC,OVC,0.00,WeatherDisplay:10.37,2013-06-06 06:41:00,
2013-06-06 01:46:00,54.4,48.7,29.95,NNW,342,0.0,0.0,81,0.00,OVC,OVC,0.00,WeatherDisplay:10.37,2013-06-06 06:46:00,
2013-06-06 01:52:00,54.2,48.5,29.95,NNW,342,0.0,0.0,81,0.00,OVC,OVC,0.00,WeatherDisplay:10.37,2013-06-06 06:52:00,
2013-06-06 01:57:00,54.1,48.4,29.94,NNW,342,0.0,0.0,81,0.00,OVC,OVC,0.00,WeatherDisplay:10.37,2013-06-06 06:57:00,
2013-06-06 02:02:00,54.1,48.4,29.94,NNW,342,0.0,0.0,81,0.00,OVC,OVC,0.00,WeatherDisplay:10.37,2013-06-06 07:02:00,
2013-06-06 02:08:00,54.0,48.3,29.94,NNW,342,0.0,0.0,81,0.00,OVC,OVC,0.00,WeatherDisplay:10.37,2013-06-06 07:08:00,
2013-06-06 02:13:00,53.8,48.1,29.94,NNW,342,0.0,0.0,81,0.00,OVC,OVC,0.00,WeatherDisplay:10.37,2013-06-06 07:13:00,
2013-06-06 02:18:00,53.6,47.9,29.94,NNW,342,0.0,0.0,81,0.00,OVC,OVC,0.00,WeatherDisplay:10.37,2013-06-06 07:18:00,
2013-06-06 02:23:00,53.3,47.6,29.94,NNW,342,0.0,0.0,81,0.00,OVC,OVC,0.00,WeatherDisplay:10.37,2013-06-06 07:23:00,
2013-06-06 02:29:00,53.1,47.4,29.94,NNW,342,0.0,0.0,81,0.00,OVC,OVC,0.00,WeatherDisplay:10.37,2013-06-06 07:29:00,
2013-06-06 02:34:00,53.0,47.3,29.93,NNW,342,0.0,0.0,81,0.00,OVC,OVC,0.00,WeatherDisplay:10.37,2013-06-06 07:34:00,
2013-06-06 02:39:00,52.8,47.1,29.93,NNW,342,0.0,0.0,81,0.00,OVC,OVC,0.00,WeatherDisplay:10.37,2013-06-06 07:39:00,
2013-06-06 02:44:00,52.7,47.0,29.93,NNW,342,0.0,0.0,81,0.00,OVC,OVC,0.00,WeatherDisplay:10.37,2013-06-06 07:44:00,
2013-06-06 02:49:00,52.7,47.0,29.93,NNW,342,0.0,0.0,81,0.00,OVC,OVC,0.00,WeatherDisplay:10.37,2013-06-06 07:49:00,
2013-06-06 02:54:00,52.7,47.0,29.93,NNW,342,0.0,0.0,81,0.00,OVC,OVC,0.00,WeatherDisplay:10.37,2013-06-06 07:54:00,
2013-06-06 02:59:00,52.6,47.3,29.93,NNW,342,0.0,0.0,82,0.00,OVC,OVC,0.00,WeatherDisplay:10.37,2013-06-06 07:59:00,
2013-06-06 03:05:00,52.6,47.3,29.93,NNW,340,3.5,3.5,82,0.00,OVC,OVC,0.00,WeatherDisplay:10.37,2013-06-06 08:05:00,
2013-06-06 03:10:00,52.8,47.5,29.93,NNW,340,0.0,0.0,82,0.00,OVC,OVC,0.00,WeatherDisplay:10.37,2013-06-06 08:10:00,
2013-06-06 03:15:00,53.1,47.7,29.93,NW,311,3.5,3.5,82,0.00,OVC,OVC,0.00,WeatherDisplay:10.37,2013-06-06 08:15:00,
2013-06-06 03:20:00,53.3,47.9,29.92,NW,311,1.2,1.2,82,0.00,OVC,OVC,0.00,WeatherDisplay:10.37,2013-06-06 08:20:00,
2013-06-06 03:25:00,53.5,48.1,29.92,NW,311,0.0,0.0,82,0.00,OVC,OVC,0.00,WeatherDisplay:10.37,2013-06-06 08:25:00,
2013-06-06 03:31:00,53.5,47.8,29.93,NW,311,0.0,0.0,81,0.00,OVC,OVC,0.00,WeatherDisplay:10.37,2013-06-06 08:31:00,
2013-06-06 03:36:00,53.5,47.8,29.92,NW,311,2.3,2.3,81,0.00,OVC,OVC,0.00,WeatherDisplay:10.37,2013-06-06 08:36:00,
2013-06-06 03:41:00,53.5,47.8,29.92,NW,311,0.0,0.0,81,0.00,OVC,OVC,0.00,WeatherDisplay:10.37,2013-06-06 08:41:00,
2013-06-06 03:46:00,53.5,47.8,29.92,NW,311,0.0,0.0,81,0.00,OVC,OVC,0.00,WeatherDisplay:10.37,2013-06-06 08:46:00,
2013-06-06 03:51:00,53.5,47.8,29.92,NW,311,0.0,0.0,81,0.00,OVC,OVC,0.00,WeatherDisplay:10.37,2013-06-06 08:51:00,
2013-06-06 03:56:00,53.5,47.8,29.92,NW,311,0.0,0.0,81,0.00,OVC,OVC,0.00,WeatherDisplay:10.37,2013-06-06 08:56:00,
2013-06-06 04:02:00,53.5,47.8,29.91,NW,311,0.0,0.0,81,0.00,OVC,OVC,0.00,WeatherDisplay:10.37,2013-06-06 09:02:00,
2013-06-06 04:07:00,53.6,47.9,29.91,NW,311,0.0,0.0,81,0.00,OVC,OVC,0.00,WeatherDisplay:10.37,2013-06-06 09:07:00,
2013-06-06 04:12:00,53.6,47.9,29.91,NW,311,0.0,0.0,81,0.00,OVC,OVC,0.00,WeatherDisplay:10.37,2013-06-06 09:12:00,
2013-06-06 04:17:00,53.5,47.8,29.91,NW,311,0.0,0.0,81,0.00,OVC,OVC,0.00,WeatherDisplay:10.37,2013-06-06 09:17:00,
2013-06-06 04:22:00,53.5,47.8,29.91,NW,311,0.0,0.0,81,0.00,OVC,OVC,0.00,WeatherDisplay:10.37,2013-06-06 09:22:00,
2013-06-06 04:27:00,53.3,47.6,29.92,NW,311,0.0,0.0,81,0.00,OVC,OVC,0.00,WeatherDisplay:10.37,2013-06-06 09:27:00,
2013-06-06 04:32:00,53.1,47.4,29.91,NW,311,0.0,0.0,81,0.00,OVC,OVC,0.00,WeatherDisplay:10.37,2013-06-06 09:32:00,
2013-06-06 04:38:00,52.9,47.2,29.91,NW,311,0.0,0.0,81,0.00,OVC,OVC,0.00,WeatherDisplay:10.37,2013-06-06 09:38:00,
2013-06-06 04:43:00,52.7,47.0,29.91,NW,311,0.0,0.0,81,0.00,OVC,OVC,0.00,WeatherDisplay:10.37,2013-06-06 09:43:00,
2013-06-06 04:48:00,52.6,46.9,29.91,NW,311,0.0,0.0,81,0.00,OVC,OVC,0.00,WeatherDisplay:10.37,2013-06-06 09:48:00,
2013-06-06 04:53:00,52.5,46.8,29.91,NW,311,0.0,0.0,81,0.00,OVC,OVC,0.00,WeatherDisplay:10.37,2013-06-06 09:53:00,
2013-06-06 04:58:00,52.6,47.3,29.91,NW,311,0.0,0.0,82,0.00,OVC,OVC,0.00,WeatherDisplay:10.37,2013-06-06 09:58:00,
2013-06-06 05:04:00,52.8,47.5,29.91,NW,311,0.0,0.0,82,0.00,OVC,OVC,0.00,WeatherDisplay:10.37,2013-06-06 10:04:00,
2013-06-06 05:09:00,53.0,47.7,29.91,NW,311,0.0,0.0,82,0.00,OVC,OVC,0.00,WeatherDisplay:10.37,2013-06-06 10:09:00,
2013-06-06 05:14:00,53.1,47.7,29.92,NW,311,3.5,3.5,82,0.00,OVC,OVC,0.00,WeatherDisplay:10.37,2013-06-06 10:14:00,
2013-06-06 05:19:00,53.2,47.8,29.92,NW,311,0.0,0.0,82,0.00,OVC,OVC,0.00,WeatherDisplay:10.37,2013-06-06 10:19:00,
2013-06-06 05:24:00,53.5,48.1,29.92,NW,311,2.3,2.3,82,0.00,OVC,OVC,0.00,WeatherDisplay:10.37,2013-06-06 10:24:00,
2013-06-06 05:29:00,53.8,48.4,29.92,NW,311,0.0,0.0,82,0.00,OVC,OVC,0.00,WeatherDisplay:10.37,2013-06-06 10:29:00,
2013-06-06 05:34:00,54.0,48.6,29.91,NW,311,1.2,0.0,82,0.00,OVC,OVC,0.00,WeatherDisplay:10.37,2013-06-06 10:34:00,
2013-06-06 05:40:00,54.2,48.8,29.92,NW,311,2.3,2.3,82,0.00,OVC,OVC,0.00,WeatherDisplay:10.37,2013-06-06 10:40:00,
2013-06-06 05:45:00,54.4,48.7,29.92,NW,311,0.0,0.0,81,0.00,OVC,OVC,0.00,WeatherDisplay:10.37,2013-06-06 10:45:00,
2013-06-06 05:50:00,54.6,48.9,29.92,NW,311,0.0,0.0,81,0.00,OVC,OVC,0.00,WeatherDisplay:10.37,2013-06-06 10:50:00,
2013-06-06 05:56:00,54.7,49.0,29.92,NW,311,0.0,0.0,81,0.00,OVC,OVC,0.00,WeatherDisplay:10.37,2013-06-06 10:56:00,
2013-06-06 06:01:00,54.8,49.1,29.91,NW,311,0.0,0.0,81,0.00,OVC,OVC,0.00,WeatherDisplay:10.37,2013-06-06 11:01:00,
2013-06-06 06:06:00,54.9,49.2,29.91,NW,311,0.0,0.0,81,0.00,OVC,OVC,0.00,WeatherDisplay:10.37,2013-06-06 11:06:00,
2013-06-06 06:11:00,55.0,49.3,29.91,NW,311,1.2,1.2,81,0.00,OVC,OVC,0.00,WeatherDisplay:10.37,2013-06-06 11:11:00,
2013-06-06 06:16:00,55.1,49.4,29.91,NW,311,0.0,0.1,81,0.00,OVC,OVC,0.00,WeatherDisplay:10.37,2013-06-06 11:16:00,
2013-06-06 06:21:00,55.2,49.5,29.91,NW,311,1.2,0.0,81,0.00,OVC,OVC,0.00,WeatherDisplay:10.37,2013-06-06 11:21:00,
2013-06-06 06:26:00,55.4,49.7,29.91,NW,311,0.0,0.0,81,0.00,OVC,OVC,0.00,WeatherDisplay:10.37,2013-06-06 11:26:00,
2013-06-06 06:31:00,55.5,49.4,29.92,NW,311,0.0,0.0,80,0.00,OVC,OVC,0.00,WeatherDisplay:10.37,2013-06-06 11:31:00,
2013-06-06 06:37:00,55.6,49.5,29.92,NW,311,1.2,1.2,80,0.00,OVC,OVC,0.00,WeatherDisplay:10.37,2013-06-06 11:37:00,
2013-06-06 06:42:00,55.8,49.7,29.92,NW,311,1.2,1.2,80,0.00,OVC,OVC,0.00,WeatherDisplay:10.37,2013-06-06 11:42:00,
2013-06-06 06:47:00,56.0,49.9,29.92,NW,311,0.0,0.0,80,0.00,OVC,OVC,0.00,WeatherDisplay:10.37,2013-06-06 11:47:00,
2013-06-06 06:53:00,56.1,50.0,29.92,NW,311,2.3,2.3,80,0.00,OVC,OVC,0.00,WeatherDisplay:10.37,2013-06-06 11:53:00,
2013-06-06 06:58:00,56.3,50.2,29.93,NW,311,2.3,2.3,80,0.00,OVC,OVC,0.00,WeatherDisplay:10.37,2013-06-06 11:58:00,
2013-06-06 07:03:00,56.5,50.4,29.92,NW,311,0.0,0.0,80,0.00,OVC,OVC,0.00,WeatherDisplay:10.37,2013-06-06 12:03:00,
2013-06-06 07:08:00,56.6,50.5,29.92,NW,311,0.0,0.0,80,0.00,OVC,OVC,0.00,WeatherDisplay:10.37,2013-06-06 12:08:00,
2013-06-06 07:13:00,56.8,50.4,29.93,NW,311,1.2,1.2,79,0.00,OVC,OVC,0.00,WeatherDisplay:10.37,2013-06-06 12:13:00,
2013-06-06 07:18:00,57.0,50.5,29.93,NW,311,1.2,1.2,79,0.00,OVC,OVC,0.00,WeatherDisplay:10.37,2013-06-06 12:18:00,
2013-06-06 07:23:00,57.3,50.8,29.93,NW,311,2.3,2.3,79,0.00,OVC,OVC,0.00,WeatherDisplay:10.37,2013-06-06 12:23:00,
2013-06-06 07:28:00,57.5,51.0,29.92,NW,311,0.0,0.0,79,0.00,OVC,OVC,0.00,WeatherDisplay:10.37,2013-06-06 12:28:00,
2013-06-06 07:33:00,57.7,51.2,29.93,NW,311,0.0,0.0,79,0.00,OVC,OVC,0.00,WeatherDisplay:10.37,2013-06-06 12:33:00,
2013-06-06 07:39:00,57.9,51.4,29.93,NW,311,2.3,2.3,79,0.00,OVC,OVC,0.00,WeatherDisplay:10.37,2013-06-06 12:39:00,
2013-06-06 07:44:00,58.2,51.7,29.93,North,355,3.5,3.5,79,0.00,OVC,OVC,0.00,WeatherDisplay:10.37,2013-06-06 12:44:00,
2013-06-06 07:45:00,58.2,51.7,29.93,North,355,1.2,1.2,79,0.00,OVC,OVC,0.00,WeatherDisplay:10.37,2013-06-06 12:45:00,
2013-06-06 07:49:00,58.2,51.7,29.93,North,355,1.2,1.2,79,0.00,OVC,OVC,0.00,WeatherDisplay:10.37,2013-06-06 12:49:00,
2013-06-06 07:54:00,58.2,51.7,29.93,North,355,1.2,1.2,79,0.00,OVC,OVC,0.00,WeatherDisplay:10.37,2013-06-06 12:54:00,
2013-06-06 09:25:00,62.2,53.4,29.95,NNE,13,6.0,6.0,73,0.00,OVC,OVC,0.00,WeatherDisplay:10.37,2013-06-06 14:25:00,
2013-06-06 09:30:00,62.3,52.8,29.95,WNW,300,3.5,3.5,71,0.00,OVC,OVC,0.00,WeatherDisplay:10.37,2013-06-06 14:30:00,
2013-06-06 09:35:00,62.5,53.0,29.95,NNW,336,3.5,3.5,71,0.00,OVC,OVC,0.00,WeatherDisplay:10.37,2013-06-06 14:35:00,
2013-06-06 09:41:00,62.9,53.4,29.95,NNW,342,3.5,3.5,71,0.00,OVC,OVC,0.00,WeatherDisplay:10.37,2013-06-06 14:41:00,
2013-06-06 09:46:00,63.3,53.3,29.95,NNE,22,4.6,4.6,70,0.00,OVC,OVC,0.00,WeatherDisplay:10.37,2013-06-06 14:46:00,
2013-06-06 09:51:00,63.6,53.6,29.95,NNE,32,4.6,4.6,70,0.00,OVC,OVC,0.00,WeatherDisplay:10.37,2013-06-06 14:51:00,
2013-06-06 09:56:00,63.9,53.5,29.95,NNE,17,3.5,3.5,69,0.00,OVC,OVC,0.00,WeatherDisplay:10.37,2013-06-06 14:56:00,
2013-06-06 10:02:00,64.3,53.5,29.94,North,11,3.5,3.5,68,0.00,OVC,OVC,0.00,WeatherDisplay:10.37,2013-06-06 15:02:00,
2013-06-06 10:07:00,64.6,53.4,29.94,NNE,12,3.5,3.5,67,0.00,OVC,OVC,0.00,WeatherDisplay:10.37,2013-06-06 15:07:00,
2013-06-06 10:12:00,65.1,53.0,29.94,NNE,19,6.0,6.0,65,0.00,OVC,OVC,0.00,WeatherDisplay:10.37,2013-06-06 15:12:00,
2013-06-06 10:17:00,65.3,52.4,29.94,NE,36,4.6,4.6,63,0.00,OVC,OVC,0.00,WeatherDisplay:10.37,2013-06-06 15:17:00,
2013-06-06 10:22:00,65.8,52.9,29.94,NNE,24,5.8,5.8,63,0.00,OVC,OVC,0.00,WeatherDisplay:10.37,2013-06-06 15:22:00,
2013-06-06 10:28:00,66.3,52.9,29.94,NE,52,4.6,4.6,62,0.00,OVC,OVC,0.00,WeatherDisplay:10.37,2013-06-06 15:28:00,
2013-06-06 10:33:00,67.0,52.7,29.94,NNE,12,8.1,8.1,60,0.00,OVC,OVC,0.00,WeatherDisplay:10.37,2013-06-06 15:33:00,
2013-06-06 10:38:00,66.6,52.3,29.94,NNE,16,11.5,11.5,60,0.00,OVC,OVC,0.00,WeatherDisplay:10.37,2013-06-06 15:38:00,
2013-06-06 10:43:00,66.4,52.5,29.94,North,5,10.4,10.4,61,0.00,OVC,OVC,0.00,WeatherDisplay:10.37,2013-06-06 15:43:00,
2013-06-06 10:49:00,66.8,53.4,29.94,West,280,3.5,3.5,62,0.00,OVC,OVC,0.00,WeatherDisplay:10.37,2013-06-06 15:49:00,
2013-06-06 10:54:00,67.3,52.5,29.94,NW,319,10.4,10.4,59,0.00,OVC,OVC,0.00,WeatherDisplay:10.37,2013-06-06 15:54:00,
2013-06-06 10:59:00,67.5,53.6,29.94,ENE,67,9.2,9.2,61,0.00,OVC,OVC,0.00,WeatherDisplay:10.37,2013-06-06 15:59:00,
2013-06-06 11:04:00,67.7,53.3,29.94,North,9,3.5,3.5,60,0.00,OVC,OVC,0.00,WeatherDisplay:10.37,2013-06-06 16:04:00,
2013-06-06 11:09:00,67.3,52.5,29.94,North,11,4.6,4.6,59,0.00,OVC,OVC,0.00,WeatherDisplay:10.37,2013-06-06 16:09:00,
2013-06-06 11:14:00,67.6,52.8,29.94,NNE,13,3.5,3.5,59,0.00,OVC,OVC,0.00,WeatherDisplay:10.37,2013-06-06 16:14:00,
2013-06-06 11:19:00,67.6,52.8,29.94,NNW,348,6.0,6.0,59,0.00,OVC,OVC,0.00,WeatherDisplay:10.37,2013-06-06 16:19:00,
2013-06-06 11:24:00,67.9,52.6,29.94,NNW,342,5.0,5.0,58,0.00,OVC,OVC,0.00,WeatherDisplay:10.37,2013-06-06 16:24:00,
2013-06-06 11:29:00,68.3,52.0,29.94,NE,38,6.9,6.9,56,0.00,OVC,OVC,0.00,WeatherDisplay:10.37,2013-06-06 16:29:00,
2013-06-06 11:35:00,68.2,52.4,29.94,NNE,17,5.8,5.8,57,0.00,OVC,OVC,0.00,WeatherDisplay:10.37,2013-06-06 16:35:00,
2013-06-06 11:40:00,68.3,51.5,29.94,NNE,26,7.0,7.0,55,0.00,OVC,OVC,0.00,WeatherDisplay:10.37,2013-06-06 16:40:00,
2013-06-06 11:45:00,68.5,51.7,29.93,NW,321,6.9,6.9,55,0.00,OVC,OVC,0.00,WeatherDisplay:10.37,2013-06-06 16:45:00,
2013-06-06 11:50:00,68.8,51.5,29.93,NNE,17,3.5,3.5,54,0.00,OVC,OVC,0.00,WeatherDisplay:10.37,2013-06-06 16:50:00,
2013-06-06 11:55:00,69.8,52.9,29.93,NNE,22,5.8,5.8,55,0.00,OVC,OVC,0.00,WeatherDisplay:10.37,2013-06-06 16:55:00,
2013-06-06 12:00:00,70.3,51.3,29.93,North,355,10.4,10.4,51,0.00,OVC,OVC,0.00,WeatherDisplay:10.37,2013-06-06 17:00:00,
2013-06-06 12:05:00,70.4,51.9,29.93,NNW,331,10.4,10.4,52,0.00,OVC,OVC,0.00,WeatherDisplay:10.37,2013-06-06 17:05:00,
2013-06-06 12:11:00,70.5,52.0,29.93,NNE,28,6.9,6.9,52,0.00,OVC,OVC,0.00,WeatherDisplay:10.37,2013-06-06 17:11:00,
2013-06-06 12:16:00,69.9,50.9,29.93,West,281,10.4,10.4,51,0.00,OVC,OVC,0.00,WeatherDisplay:10.37,2013-06-06 17:16:00,
2013-06-06 12:21:00,69.2,51.3,29.94,North,5,4.6,4.6,53,0.00,OVC,OVC,0.00,WeatherDisplay:10.37,2013-06-06 17:21:00,
2013-06-06 12:26:00,68.7,50.9,29.94,NNE,21,8.1,8.1,53,0.00,OVC,OVC,0.00,WeatherDisplay:10.37,2013-06-06 17:26:00,
2013-06-06 12:32:00,68.5,51.2,29.93,NNW,328,3.5,3.5,54,0.00,OVC,OVC,0.00,WeatherDisplay:10.37,2013-06-06 17:32:00,
2013-06-06 12:37:00,68.0,52.2,29.93,NW,318,9.2,9.2,57,0.00,OVC,OVC,0.00,WeatherDisplay:10.37,2013-06-06 17:37:00,
2013-06-06 12:42:00,69.1,53.7,29.93,NNW,328,3.5,3.5,58,0.00,OVC,OVC,0.00,WeatherDisplay:10.37,2013-06-06 17:42:00,
2013-06-06 12:47:00,69.6,51.2,29.93,North,350,11.5,11.5,52,0.00,OVC,OVC,0.00,WeatherDisplay:10.37,2013-06-06 17:47:00,
2013-06-06 12:53:00,69.3,50.9,29.93,NNE,22,13.8,13.8,52,0.00,OVC,OVC,0.00,WeatherDisplay:10.37,2013-06-06 17:53:00,
2013-06-06 12:58:00,70.1,51.7,29.93,ENE,67,4.6,4.6,52,0.00,OVC,OVC,0.00,WeatherDisplay:10.37,2013-06-06 17:58:00,
2013-06-06 13:03:00,70.7,50.0,29.93,NNE,15,9.2,9.2,48,0.00,OVC,OVC,0.00,WeatherDisplay:10.37,2013-06-06 18:03:00,
2013-06-06 13:08:00,70.7,51.1,29.93,NNW,339,10.0,10.0,50,0.00,OVC,OVC,0.00,WeatherDisplay:10.37,2013-06-06 18:08:00,
2013-06-06 13:14:00,69.7,50.2,29.93,NNW,333,9.2,9.2,50,0.00,OVC,OVC,0.00,WeatherDisplay:10.37,2013-06-06 18:14:00,
2013-06-06 13:19:00,69.6,51.7,29.92,NNE,27,3.5,3.5,53,0.00,OVC,OVC,0.00,WeatherDisplay:10.37,2013-06-06 18:19:00,
2013-06-06 13:24:00,69.9,50.4,29.93,North,360,13.0,13.0,50,0.00,OVC,OVC,0.00,WeatherDisplay:10.37,2013-06-06 18:24:00,
2013-06-06 13:29:00,70.5,51.0,29.93,NNW,333,6.9,6.9,50,0.00,OVC,OVC,0.00,WeatherDisplay:10.37,2013-06-06 18:29:00,
2013-06-06 13:34:00,70.7,50.6,29.93,NW,321,16.1,16.1,49,0.00,OVC,OVC,0.00,WeatherDisplay:10.37,2013-06-06 18:34:00,
2013-06-06 13:39:00,69.9,49.9,29.93,NNE,24,6.9,6.9,49,0.00,OVC,OVC,0.00,WeatherDisplay:10.37,2013-06-06 18:39:00,
2013-06-06 13:45:00,69.6,50.1,29.93,NNW,341,8.1,8.1,50,0.00,OVC,OVC,0.00,WeatherDisplay:10.37,2013-06-06 18:45:00,
2013-06-06 13:50:00,70.2,50.7,29.93,West,278,7.0,7.0,50,0.00,OVC,OVC,0.00,WeatherDisplay:10.37,2013-06-06 18:50:00,
2013-06-06 13:55:00,70.6,50.5,29.93,NNE,32,5.0,5.0,49,0.00,OVC,OVC,0.00,WeatherDisplay:10.37,2013-06-06 18:55:00,
2013-06-06 14:00:00,71.1,49.8,29.93,West,279,13.8,13.8,47,0.00,OVC,OVC,0.00,WeatherDisplay:10.37,2013-06-06 19:00:00,
2013-06-06 14:05:00,70.1,50.0,29.94,NNW,346,6.9,6.9,49,0.00,OVC,OVC,0.00,WeatherDisplay:10.37,2013-06-06 19:05:00,
2013-06-06 14:11:00,69.3,49.9,29.94,NNW,340,5.0,6.1,50,0.00,OVC,OVC,0.00,WeatherDisplay:10.37,2013-06-06 19:11:00,
2013-06-06 14:16:00,69.5,48.4,29.94,NNW,332,10.4,10.4,47,0.00,OVC,OVC,0.00,WeatherDisplay:10.37,2013-06-06 19:16:00,
2013-06-06 14:21:00,69.7,48.0,29.94,West,275,5.8,5.8,46,0.00,OVC,OVC,0.00,WeatherDisplay:10.37,2013-06-06 19:21:00,
2013-06-06 14:27:00,69.5,49.5,29.94,WNW,292,4.6,4.6,49,0.00,OVC,OVC,0.00,WeatherDisplay:10.37,2013-06-06 19:27:00,
2013-06-06 14:32:00,69.6,51.7,29.94,West,275,1.2,0.0,53,0.00,OVC,OVC,0.00,WeatherDisplay:10.37,2013-06-06 19:32:00,
2013-06-06 14:34:00,70.1,49.5,29.94,West,274,3.5,3.5,48,0.00,OVC,OVC,0.00,WeatherDisplay:10.37,2013-06-06 19:34:00,
2013-06-06 14:39:00,71.4,48.3,29.94,NNW,335,6.9,6.9,44,0.00,OVC,OVC,0.00,WeatherDisplay:10.37,2013-06-06 19:39:00,
2013-06-06 14:44:00,70.9,48.5,29.94,NNW,332,2.0,2.0,45,0.00,OVC,OVC,0.00,WeatherDisplay:10.37,2013-06-06 19:44:00,
2013-06-06 14:49:00,71.8,48.1,29.94,West,272,5.8,5.8,43,0.00,OVC,OVC,0.00,WeatherDisplay:10.37,2013-06-06 19:49:00,
2013-06-06 14:55:00,71.9,48.2,29.95,NNE,22,3.5,3.5,43,0.00,OVC,OVC,0.00,WeatherDisplay:10.37,2013-06-06 19:55:00,
2013-06-06 15:00:00,71.0,48.0,29.94,WNW,294,6.9,6.9,44,0.00,OVC,OVC,0.00,WeatherDisplay:10.37,2013-06-06 20:00:00,
2013-06-06 15:05:00,71.3,48.9,29.94,NNW,330,5.8,5.8,45,0.00,OVC,OVC,0.00,WeatherDisplay:10.37,2013-06-06 20:05:00,
2013-06-06 15:10:00,71.1,47.5,29.95,NW,321,5.8,5.8,43,0.00,OVC,OVC,0.00,WeatherDisplay:10.37,2013-06-06 20:10:00,
2013-06-06 15:15:00,70.3,47.3,29.95,NNW,348,6.9,6.9,44,0.00,OVC,OVC,0.00,WeatherDisplay:10.37,2013-06-06 20:15:00,
2013-06-06 15:20:00,70.2,49.0,29.95,NE,41,11.5,11.5,47,0.00,OVC,OVC,0.00,WeatherDisplay:10.37,2013-06-06 20:20:00,
2013-06-06 15:25:00,70.2,48.4,29.95,NNW,328,4.0,4.0,46,0.00,OVC,OVC,0.00,WeatherDisplay:10.37,2013-06-06 20:25:00,
2013-06-06 15:31:00,69.8,48.7,29.95,NNE,23,10.4,10.4,47,0.00,OVC,OVC,0.00,WeatherDisplay:10.37,2013-06-06 20:31:00,
2013-06-06 15:37:00,69.6,49.0,29.94,NNE,22,9.2,9.2,48,0.00,OVC,OVC,0.00,WeatherDisplay:10.37,2013-06-06 20:37:00,
2013-06-06 15:42:00,69.8,49.8,29.94,NE,53,4.6,4.6,49,0.00,OVC,OVC,0.00,WeatherDisplay:10.37,2013-06-06 20:42:00,
2013-06-06 15:47:00,70.4,48.0,29.94,North,360,11.5,11.5,45,0.00,OVC,OVC,0.00,WeatherDisplay:10.37,2013-06-06 20:47:00,
2013-06-06 15:52:00,70.6,48.8,29.94,North,351,9.2,9.2,46,0.00,OVC,OVC,0.00,WeatherDisplay:10.37,2013-06-06 20:52:00,
2013-06-06 15:57:00,71.4,48.3,29.94,NW,323,6.9,6.9,44,0.00,OVC,OVC,0.00,WeatherDisplay:10.37,2013-06-06 20:57:00,
2013-06-06 16:03:00,72.3,49.2,29.94,NW,321,11.0,11.0,44,0.00,OVC,OVC,0.00,WeatherDisplay:10.37,2013-06-06 21:03:00,
2013-06-06 16:08:00,72.1,47.7,29.94,NNW,344,8.1,8.1,42,0.00,OVC,OVC,0.00,WeatherDisplay:10.37,2013-06-06 21:08:00,
2013-06-06 16:13:00,72.1,48.4,29.93,NNW,340,4.6,4.6,43,0.00,OVC,OVC,0.00,WeatherDisplay:10.37,2013-06-06 21:13:00,
2013-06-06 16:18:00,72.2,49.1,29.94,ENE,73,5.8,5.8,44,0.00,OVC,OVC,0.00,WeatherDisplay:10.37,2013-06-06 21:18:00,
2013-06-06 16:23:00,72.5,49.3,29.93,North,5,6.9,6.9,44,0.00,OVC,OVC,0.00,WeatherDisplay:10.37,2013-06-06 21:23:00,
2013-06-06 16:28:00,72.4,48.6,29.93,NW,320,3.5,3.5,43,0.00,OVC,OVC,0.00,WeatherDisplay:10.37,2013-06-06 21:28:00,
2013-06-06 16:33:00,71.5,48.4,29.94,ENE,74,4.6,4.6,44,0.00,OVC,OVC,0.00,WeatherDisplay:10.37,2013-06-06 21:33:00,
2013-06-06 16:39:00,71.5,49.0,29.93,NE,37,6.9,6.9,45,0.00,OVC,OVC,0.00,WeatherDisplay:10.37,2013-06-06 21:39:00,
2013-06-06 16:44:00,71.3,48.3,29.94,NNE,30,8.1,8.1,44,0.00,OVC,OVC,0.00,WeatherDisplay:10.37,2013-06-06 21:44:00,
2013-06-06 16:49:00,70.4,48.6,29.94,NE,40,6.9,6.9,46,0.00,OVC,OVC,0.00,WeatherDisplay:10.37,2013-06-06 21:49:00,
2013-06-06 16:55:00,70.5,48.7,29.94,ENE,71,4.6,4.6,46,0.00,OVC,OVC,0.00,WeatherDisplay:10.37,2013-06-06 21:55:00,
2013-06-06 17:00:00,71.0,48.6,29.94,North,9,2.3,2.3,45,0.00,OVC,OVC,0.00,WeatherDisplay:10.37,2013-06-06 22:00:00,
2013-06-06 17:05:00,71.3,48.9,29.94,ESE,109,5.8,5.8,45,0.00,OVC,OVC,0.00,WeatherDisplay:10.37,2013-06-06 22:05:00,
2013-06-06 17:10:00,71.2,48.2,29.94,NNW,338,8.1,8.1,44,0.00,OVC,OVC,0.00,WeatherDisplay:10.37,2013-06-06 22:10:00,
2013-06-06 17:15:00,70.9,47.9,29.94,WNW,284,10.4,10.4,44,0.00,OVC,OVC,0.00,WeatherDisplay:10.37,2013-06-06 22:15:00,
2013-06-06 17:20:00,70.4,48.0,29.94,NNE,18,5.8,5.8,45,0.00,OVC,OVC,0.00,WeatherDisplay:10.37,2013-06-06 22:20:00,
2013-06-06 17:26:00,69.7,48.0,29.94,NW,321,6.9,6.9,46,0.00,OVC,OVC,0.00,WeatherDisplay:10.37,2013-06-06 22:26:00,
2013-06-06 17:31:00,69.4,48.3,29.94,NNW,333,11.5,11.5,47,0.00,OVC,OVC,0.00,WeatherDisplay:10.37,2013-06-06 22:31:00,
2013-06-06 17:37:00,69.7,49.1,29.94,NNW,336,9.2,9.2,48,0.00,OVC,OVC,0.00,WeatherDisplay:10.37,2013-06-06 22:37:00,
2013-06-06 17:43:00,70.3,49.1,29.94,NW,319,5.8,5.8,47,0.00,OVC,OVC,0.00,WeatherDisplay:10.37,2013-06-06 22:43:00,
2013-06-06 17:48:00,70.4,49.2,29.94,NW,317,9.0,9.0,47,0.00,OVC,OVC,0.00,WeatherDisplay:10.37,2013-06-06 22:48:00,
2013-06-06 17:53:00,70.1,48.4,29.93,NW,316,5.8,5.8,46,0.00,OVC,OVC,0.00,WeatherDisplay:10.37,2013-06-06 22:53:00,
2013-06-06 17:58:00,69.6,48.5,29.93,NNE,24,6.9,6.9,47,0.00,OVC,OVC,0.00,WeatherDisplay:10.37,2013-06-06 22:58:00,
2013-06-06 18:03:00,69.3,48.2,29.93,NNE,32,10.4,10.4,47,0.00,OVC,OVC,0.00,WeatherDisplay:10.37,2013-06-06 23:03:00,
2013-06-06 18:08:00,69.0,48.5,29.93,North,350,9.2,9.2,48,0.00,OVC,OVC,0.00,WeatherDisplay:10.37,2013-06-06 23:08:00,
2013-06-06 18:14:00,69.4,48.3,29.93,North,5,11.5,11.5,47,0.00,OVC,OVC,0.00,WeatherDisplay:10.37,2013-06-06 23:14:00,
2013-06-06 18:19:00,69.9,48.7,29.93,NNW,337,8.1,8.1,47,0.00,OVC,OVC,0.00,WeatherDisplay:10.37,2013-06-06 23:19:00,
2013-06-06 18:24:00,70.0,49.4,29.93,NW,316,4.6,4.6,48,0.00,OVC,OVC,0.00,WeatherDisplay:10.37,2013-06-06 23:24:00,
2013-06-06 18:29:00,70.1,48.9,29.93,NNE,17,6.9,6.9,47,0.00,OVC,OVC,0.00,WeatherDisplay:10.37,2013-06-06 23:29:00,
2013-06-06 18:34:00,70.2,49.6,29.92,East,83,3.5,0.0,48,0.00,OVC,OVC,0.00,WeatherDisplay:10.37,2013-06-06 23:34:00,
2013-06-06 18:39:00,70.3,49.7,29.93,NE,42,11.0,11.0,48,0.00,OVC,OVC,0.00,WeatherDisplay:10.37,2013-06-06 23:39:00,
2013-06-06 18:44:00,69.9,49.9,29.93,NNW,336,3.5,3.5,49,0.00,OVC,OVC,0.00,WeatherDisplay:10.37,2013-06-06 23:44:00,
2013-06-06 18:50:00,69.4,49.4,29.93,North,355,3.5,3.5,49,0.00,OVC,OVC,0.00,WeatherDisplay:10.37,2013-06-06 23:50:00,
2013-06-06 18:55:00,68.8,49.9,29.93,North,355,5.0,5.0,51,0.00,OVC,OVC,0.00,WeatherDisplay:10.37,2013-06-06 23:55:00,
2013-06-06 19:00:00,68.5,49.7,29.93,NNE,33,3.0,3.0,51,0.00,OVC,OVC,0.00,WeatherDisplay:10.37,2013-06-07 00:00:00,
2013-06-06 19:05:00,68.1,49.3,29.93,North,5,6.0,6.0,51,0.00,OVC,OVC,0.00,WeatherDisplay:10.37,2013-06-07 00:05:00,
2013-06-06 19:11:00,67.7,49.4,29.93,NE,36,4.6,4.6,52,0.00,OVC,OVC,0.00,WeatherDisplay:10.37,2013-06-07 00:11:00,
2013-06-06 19:16:00,67.3,49.1,29.93,NE,36,4.6,4.6,52,0.00,OVC,OVC,0.00,WeatherDisplay:10.37,2013-06-07 00:16:00,
2013-06-06 19:21:00,67.1,49.4,29.93,NE,50,5.8,5.8,53,0.00,OVC,OVC,0.00,WeatherDisplay:10.37,2013-06-07 00:21:00,
2013-06-06 19:27:00,66.7,49.0,29.93,North,355,6.9,6.9,53,0.00,OVC,OVC,0.00,WeatherDisplay:10.37,2013-06-07 00:27:00,
2013-06-06 19:32:00,66.5,48.8,29.93,NW,317,6.9,6.9,53,0.00,OVC,OVC,0.00,WeatherDisplay:10.37,2013-06-07 00:32:00,
2013-06-06 19:37:00,66.1,49.0,29.93,NNW,336,5.8,5.8,54,0.00,OVC,OVC,0.00,WeatherDisplay:10.37,2013-06-07 00:37:00,
2013-06-06 19:42:00,65.7,49.1,29.94,NNW,336,4.6,4.6,55,0.00,OVC,OVC,0.00,WeatherDisplay:10.37,2013-06-07 00:42:00,
2013-06-06 19:47:00,65.4,49.3,29.94,North,10,3.5,3.5,56,0.00,OVC,OVC,0.00,WeatherDisplay:10.37,2013-06-07 00:47:00,
2013-06-06 19:52:00,65.2,49.1,29.94,NNE,22,4.0,4.0,56,0.00,OVC,OVC,0.00,WeatherDisplay:10.37,2013-06-07 00:52:00,
2013-06-06 19:57:00,65.1,49.5,29.94,NNE,32,3.5,3.5,57,0.00,OVC,OVC,0.00,WeatherDisplay:10.37,2013-06-07 00:57:00,
2013-06-06 20:03:00,64.9,49.3,29.94,North,11,4.6,4.6,57,0.00,OVC,OVC,0.00,WeatherDisplay:10.37,2013-06-07 01:03:00,
2013-06-06 20:08:00,64.8,49.7,29.94,North,11,2.3,2.3,58,0.00,OVC,OVC,0.00,WeatherDisplay:10.37,2013-06-07 01:08:00,
2013-06-06 20:13:00,64.5,49.4,29.94,North,10,3.5,3.5,58,0.00,OVC,OVC,0.00,WeatherDisplay:10.37,2013-06-07 01:13:00,
2013-06-06 20:18:00,64.3,49.2,29.94,ENE,63,2.3,2.4,58,0.00,OVC,OVC,0.00,WeatherDisplay:10.37,2013-06-07 01:18:00,
2013-06-06 20:24:00,64.1,49.0,29.95,NE,35,3.5,3.5,58,0.00,OVC,OVC,0.00,WeatherDisplay:10.37,2013-06-07 01:24:00,
2013-06-06 20:29:00,63.9,48.8,29.95,NE,35,3.5,3.5,58,0.00,OVC,OVC,0.00,WeatherDisplay:10.37,2013-06-07 01:29:00,
2013-06-06 20:34:00,63.6,49.0,29.94,NNE,32,3.5,3.5,59,0.00,OVC,OVC,0.00,WeatherDisplay:10.37,2013-06-07 01:34:00,
2013-06-06 20:39:00,63.3,48.7,29.95,NNW,327,4.6,4.6,59,0.00,OVC,OVC,0.00,WeatherDisplay:10.37,2013-06-07 01:39:00,
2013-06-06 20:44:00,63.1,49.0,29.95,NNW,327,3.5,3.5,60,0.00,OVC,OVC,0.00,WeatherDisplay:10.37,2013-06-07 01:44:00,
2013-06-06 20:50:00,62.9,48.8,29.94,NNW,340,2.3,2.3,60,0.00,OVC,OVC,0.00,WeatherDisplay:10.37,2013-06-07 01:50:00,
2013-06-06 20:55:00,62.8,48.7,29.95,NNE,27,0.0,0.0,60,0.00,OVC,OVC,0.00,WeatherDisplay:10.37,2013-06-07 01:55:00,
2013-06-06 21:00:00,62.6,48.5,29.95,NNE,24,3.5,3.5,60,0.00,OVC,OVC,0.00,WeatherDisplay:10.37,2013-06-07 02:00:00,
2013-06-06 21:05:00,62.5,48.4,29.95,NNE,24,2.0,2.0,60,0.00,OVC,OVC,0.00,WeatherDisplay:10.37,2013-06-07 02:05:00,
2013-06-06 21:10:00,62.3,48.7,29.95,NNE,24,1.2,1.2,61,0.00,OVC,OVC,0.00,WeatherDisplay:10.37,2013-06-07 02:10:00,
2013-06-06 21:15:00,62.2,48.6,29.95,NNE,24,3.0,3.0,61,0.00,OVC,OVC,0.00,WeatherDisplay:10.37,2013-06-07 02:15:00,
2013-06-06 21:21:00,62.2,48.6,29.95,NNE,24,3.5,3.5,61,0.00,OVC,OVC,0.00,WeatherDisplay:10.37,2013-06-07 02:21:00,
2013-06-06 21:26:00,62.2,48.6,29.96,NNE,18,3.5,3.5,61,0.00,OVC,OVC,0.00,WeatherDisplay:10.37,2013-06-07 02:26:00,
2013-06-06 21:31:00,62.2,48.6,29.96,NNE,18,2.3,2.3,61,0.00,OVC,OVC,0.00,WeatherDisplay:10.37,2013-06-07 02:31:00,
2013-06-06 21:36:00,62.0,48.4,29.96,NNE,18,3.5,3.5,61,0.00,OVC,OVC,0.00,WeatherDisplay:10.37,2013-06-07 02:36:00,
2013-06-06 21:42:00,61.8,48.6,29.96,NNE,32,3.5,3.5,62,0.00,OVC,OVC,0.00,WeatherDisplay:10.37,2013-06-07 02:42:00,
2013-06-06 21:47:00,61.7,48.5,29.96,NNW,333,3.5,3.5,62,0.00,OVC,OVC,0.00,WeatherDisplay:10.37,2013-06-07 02:47:00,
2013-06-06 21:52:00,61.6,48.4,29.97,NE,37,3.5,3.5,62,0.00,OVC,OVC,0.00,WeatherDisplay:10.37,2013-06-07 02:52:00,
2013-06-06 21:57:00,61.4,48.7,29.97,NNE,30,2.0,2.0,63,0.00,OVC,OVC,0.00,WeatherDisplay:10.37,2013-06-07 02:57:00,
2013-06-06 22:03:00,61.1,48.8,29.97,NNE,30,3.5,3.5,64,0.00,OVC,OVC,0.00,WeatherDisplay:10.37,2013-06-07 03:03:00,
2013-06-06 22:08:00,60.7,48.9,29.97,NNE,30,3.5,3.5,65,0.00,OVC,OVC,0.00,WeatherDisplay:10.37,2013-06-07 03:08:00,
2013-06-06 22:13:00,60.4,48.6,29.97,NNE,30,0.0,0.0,65,0.00,OVC,OVC,0.00,WeatherDisplay:10.37,2013-06-07 03:13:00,
2013-06-06 22:18:00,60.1,48.7,29.98,NNE,30,3.0,3.0,66,0.00,OVC,OVC,0.00,WeatherDisplay:10.37,2013-06-07 03:18:00,
2013-06-06 22:23:00,59.8,48.8,29.98,NNE,30,2.3,2.3,67,0.00,OVC,OVC,0.00,WeatherDisplay:10.37,2013-06-07 03:23:00,
2013-06-06 22:29:00,59.5,48.5,29.98,NNE,30,3.5,3.5,67,0.00,OVC,OVC,0.00,WeatherDisplay:10.37,2013-06-07 03:29:00,
2013-06-06 22:34:00,59.2,48.6,29.98,NNE,30,0.0,0.0,68,0.00,OVC,OVC,0.00,WeatherDisplay:10.37,2013-06-07 03:34:00,
2013-06-06 22:39:00,59.0,48.4,29.98,NNE,30,0.0,0.0,68,0.00,OVC,OVC,0.00,WeatherDisplay:10.37,2013-06-07 03:39:00,
2013-06-06 22:44:00,59.0,48.8,29.98,NNE,30,0.0,0.0,69,0.00,OVC,OVC,0.00,WeatherDisplay:10.37,2013-06-07 03:44:00,
2013-06-06 22:49:00,58.5,48.4,29.98,NNE,30,0.0,0.0,69,0.00,OVC,OVC,0.00,WeatherDisplay:10.37,2013-06-07 03:49:00,
2013-06-06 22:54:00,58.2,48.5,29.98,NNE,30,0.0,0.0,70,0.00,OVC,OVC,0.00,WeatherDisplay:10.37,2013-06-07 03:54:00,
2013-06-06 22:59:00,58.1,48.4,29.98,NNE,30,3.5,3.5,70,0.00,OVC,OVC,0.00,WeatherDisplay:10.37,2013-06-07 03:59:00,
2013-06-06 23:01:00,58.1,48.4,29.98,NNE,30,1.2,1.2,70,0.00,OVC,OVC,0.00,WeatherDisplay:10.37,2013-06-07 04:01:00,
2013-06-06 23:03:00,58.0,48.3,29.98,NNE,30,2.3,2.3,70,0.00,OVC,OVC,0.00,WeatherDisplay:10.37,2013-06-07 04:03:00,
2013-06-06 23:06:00,58.0,48.6,29.98,NNE,30,0.0,0.0,71,0.00,OVC,OVC,0.00,WeatherDisplay:10.37,2013-06-07 04:06:00,
2013-06-06 23:12:00,57.8,48.5,29.98,NNE,30,2.0,2.0,71,0.00,OVC,OVC,0.00,WeatherDisplay:10.37,2013-06-07 04:12:00,
2013-06-06 23:17:00,57.7,48.4,29.98,NNE,29,3.5,3.5,71,0.00,OVC,OVC,0.00,WeatherDisplay:10.37,2013-06-07 04:17:00,
2013-06-06 23:22:00,57.6,48.3,29.98,NNE,29,0.0,0.0,71,0.00,OVC,OVC,0.00,WeatherDisplay:10.37,2013-06-07 04:22:00,
2013-06-06 23:27:00,57.5,48.2,29.98,NNE,29,0.0,0.0,71,0.00,OVC,OVC,0.00,WeatherDisplay:10.37,2013-06-07 04:27:00,
2013-06-06 23:32:00,57.2,47.9,29.98,NNE,29,0.0,0.0,71,0.00,OVC,OVC,0.00,WeatherDisplay:10.37,2013-06-07 04:32:00,
2013-06-06 23:38:00,56.9,48.0,29.98,NNE,29,0.0,0.0,72,0.00,OVC,OVC,0.00,WeatherDisplay:10.37,2013-06-07 04:38:00,
2013-06-06 23:43:00,56.7,48.1,29.98,NNE,29,0.0,0.0,73,0.00,OVC,OVC,0.00,WeatherDisplay:10.37,2013-06-07 04:43:00,
2013-06-06 23:48:00,56.4,47.9,29.98,NNE,29,0.0,0.0,73,0.00,OVC,OVC,0.00,WeatherDisplay:10.37,2013-06-07 04:48:00,
2013-06-06 23:53:00,56.2,48.0,29.98,NNE,29,0.0,0.0,74,0.00,OVC,OVC,0.00,WeatherDisplay:10.37,2013-06-07 04:53:00,
2013-06-06 23:58:00,56.0,47.8,29.98,NNE,29,0.0,0.0,74,0.00,OVC,OVC,0.00,WeatherDisplay:10.37,2013-06-07 04:58:00,